Time;durP1;ratioP1;P1;durP2;ratioP2;P2;SDS_P1;SDS_P2;PMS_P1;PMS_P2;Temp;Humidity;BMP_temperature;BMP_pressure;BME280_temperature;BME280_humidity;BME280_pressure;Samples;Min_cycle;Max_cycle;Signal;HPM_P1;HPM_P2
2023/10/28 18:47:50;;;;;;;3.83;0.70;;;;;;;18.71;55.87;97978.63;6107061;22;1801922;-76
2023/10/28 18:50:21;;;;;;;6.97;1.73;;;;;;;18.70;56.05;97969.84;6183700;23;20465;-75
2023/10/28 18:52:47;;;;;;;9.25;1.50;;;;;;;18.67;56.15;97982.44;6214080;23;20004;-76
2023/10/28 18:55:12;;;;;;;5.10;1.23;;;;;;;18.66;56.14;97968.41;6213443;23;20061;-76
2023/10/28 18:57:38;;;;;;;6.47;1.33;;;;;;;18.67;56.29;97959.53;6213867;23;20005;-75
2023/10/28 19:00:06;;;;;;;10.45;1.60;;;;;;;18.67;56.03;97953.38;6213955;23;20068;-76
2023/10/28 19:02:31;;;;;;;3.78;1.35;;;;;;;18.67;56.16;97933.09;6212685;23;20365;-76
2023/10/28 19:04:57;;;;;;;5.60;1.20;;;;;;;18.68;56.08;97933.97;6213673;23;20091;-76
2023/10/28 19:07:22;;;;;;;4.85;1.30;;;;;;;18.67;55.96;97958.66;6213850;23;20063;-76
2023/10/28 19:09:47;;;;;;;5.75;1.00;;;;;;;18.64;56.13;97965.88;6213828;23;20080;-76
2023/10/28 19:12:13;;;;;;;4.78;1.15;;;;;;;18.64;56.22;97978.22;6215622;23;20001;-76
2023/10/28 19:14:39;;;;;;;9.32;2.05;;;;;;;18.65;58.20;97990.50;6217507;23;20004;-76
2023/10/28 19:17:04;;;;;;;18.73;4.00;;;;;;;18.68;59.89;97992.91;6217458;23;20004;-76
2023/10/28 19:19:30;;;;;;;14.93;3.97;;;;;;;18.70;62.39;97990.97;6217166;23;20004;-75
2023/10/28 19:21:56;;;;;;;16.88;3.67;;;;;;;18.72;61.88;97994.38;6217713;23;20028;-76
2023/10/28 19:24:21;;;;;;;9.73;2.67;;;;;;;18.72;62.07;98001.44;6217258;23;20000;-76
2023/10/28 19:26:47;;;;;;;10.02;2.30;;;;;;;18.73;62.11;97984.63;6216595;23;20059;-75
2023/10/28 19:29:12;;;;;;;10.45;2.45;;;;;;;18.73;62.18;97985.47;6217078;23;20009;-75
2023/10/28 19:31:39;;;;;;;8.77;2.33;;;;;;;18.74;60.96;97981.88;6217472;23;20000;-76
2023/10/28 19:34:04;;;;;;;6.50;1.88;;;;;;;18.75;61.15;97983.56;6190146;23;20131;-76
2023/10/28 19:36:29;;;;;;;6.85;2.10;;;;;;;18.75;61.90;97977.44;6216800;23;20051;-75
2023/10/28 19:38:55;;;;;;;9.10;2.25;;;;;;;18.76;61.13;97985.25;6190648;23;20005;-76
2023/10/28 19:41:22;;;;;;;9.00;2.38;;;;;;;18.75;61.25;97983.56;6217104;23;20005;-76
2023/10/28 19:43:48;;;;;;;8.70;2.17;;;;;;;18.75;60.78;97982.72;6217639;23;20087;-76
2023/10/28 19:46:13;;;;;;;9.75;2.45;;;;;;;18.71;60.70;97982.13;6216796;23;20067;-76
2023/10/28 19:48:39;;;;;;;7.75;1.90;;;;;;;18.74;60.45;97971.31;6212532;23;20016;-76
2023/10/28 19:51:06;;;;;;;7.70;1.88;;;;;;;18.75;59.81;97978.28;6216139;23;20079;-75
2023/10/28 19:53:40;;;;;;;8.43;2.78;;;;;;;18.76;59.71;97972.06;6216416;23;20013;-76
2023/10/28 19:56:09;;;;;;;7.35;1.77;;;;;;;18.73;59.92;97980.19;6215993;23;20012;-76
2023/10/28 19:58:41;;;;;;;8.20;2.17;;;;;;;18.70;60.30;97969.84;6216182;23;20008;-75
2023/10/28 20:01:10;;;;;;;4.45;1.40;;;;;;;18.71;59.41;97961.00;6216401;23;20005;-76
2023/10/28 20:03:36;;;;;;;5.15;1.50;;;;;;;18.69;59.44;97968.16;6215806;23;20025;-75
2023/10/28 20:06:06;;;;;;;5.57;1.70;;;;;;;18.69;59.33;97972.63;6216361;23;20036;-75
2023/10/28 20:08:31;;;;;;;4.95;1.48;;;;;;;18.67;59.81;97970.09;6215893;23;20001;-76
2023/10/28 20:10:57;;;;;;;5.03;1.88;;;;;;;18.64;59.84;97970.31;6210410;23;20005;-75
2023/10/28 20:13:23;;;;;;;7.03;1.48;;;;;;;18.63;59.89;97963.34;6214144;23;20004;-76
2023/10/28 20:15:49;;;;;;;5.25;1.80;;;;;;;18.64;59.71;97965.03;6211547;23;20055;-77
2023/10/28 20:18:15;;;;;;;4.93;1.60;;;;;;;18.62;60.13;97961.66;6214806;23;20000;-77
2023/10/28 20:20:40;;;;;;;5.43;1.77;;;;;;;18.66;59.80;97963.13;6214699;23;20339;-73
2023/10/28 20:23:07;;;;;;;4.57;1.40;;;;;;;18.66;59.27;97963.13;6214533;23;20007;-77
2023/10/28 20:25:33;;;;;;;7.38;1.63;;;;;;;18.65;59.40;97961.44;6213555;23;20004;-76
2023/10/28 20:27:58;;;;;;;4.88;1.42;;;;;;;18.66;59.26;97947.28;6213532;23;20086;-75
2023/10/28 20:30:23;;;;;;;6.97;1.67;;;;;;;18.63;59.77;97958.06;6213995;23;20028;-77
2023/10/28 20:32:49;;;;;;;4.55;1.50;;;;;;;18.62;59.72;97951.09;6213558;23;20445;-77
2023/10/28 20:35:14;;;;;;;8.68;1.75;;;;;;;18.63;59.52;97952.78;6213871;23;20431;-76
2023/10/28 20:37:40;;;;;;;8.93;2.08;;;;;;;18.65;59.52;97957.00;6214109;23;20001;-77
2023/10/28 20:40:06;;;;;;;7.40;1.90;;;;;;;18.64;59.62;97959.75;6214448;23;20011;-76
2023/10/28 20:42:32;;;;;;;7.60;1.80;;;;;;;18.64;59.65;97967.66;6187603;23;20120;-76
2023/10/28 20:44:58;;;;;;;7.68;2.05;;;;;;;18.61;59.78;97973.19;6214382;23;20004;-76
2023/10/28 20:47:27;;;;;;;7.43;1.63;;;;;;;18.63;59.67;97972.13;6213694;23;20042;-76
2023/10/28 20:49:56;;;;;;;5.82;1.67;;;;;;;18.64;59.44;97978.22;6214094;23;20017;-76
2023/10/28 20:52:21;;;;;;;4.72;1.70;;;;;;;18.63;59.50;97971.28;6214186;23;20004;-76
2023/10/28 20:54:46;;;;;;;8.88;1.88;;;;;;;18.63;59.62;97979.19;6187534;23;20362;-75
2023/10/28 20:57:12;;;;;;;5.03;2.03;;;;;;;18.61;59.91;97981.97;6214345;23;20008;-77
2023/10/28 20:59:37;;;;;;;7.53;2.05;;;;;;;18.63;59.35;97980.06;6213910;23;20386;-76
2023/10/28 21:02:04;;;;;;;5.65;1.85;;;;;;;18.64;59.36;97975.59;6213608;23;20004;-77
2023/10/28 21:04:29;;;;;;;4.65;1.55;;;;;;;18.62;59.75;97977.53;6186879;23;20091;-77
2023/10/28 21:06:55;;;;;;;5.25;1.63;;;;;;;18.63;59.25;97982.69;6213959;23;20028;-78
2023/10/28 21:09:21;;;;;;;5.22;1.50;;;;;;;18.61;59.64;97986.41;6214385;23;20008;-77
2023/10/28 21:11:47;;;;;;;6.70;1.60;;;;;;;18.62;59.44;97983.66;6186810;23;20312;-79
2023/10/28 21:14:13;;;;;;;4.50;1.73;;;;;;;18.62;59.69;97993.38;6209153;23;20020;-79
2023/10/28 21:16:41;;;;;;;6.65;1.77;;;;;;;18.62;59.76;97999.50;6213597;23;20004;-79
2023/10/28 21:19:06;;;;;;;6.80;2.08;;;;;;;18.61;59.57;97989.03;6213637;23;20452;-77
2023/10/28 21:21:32;;;;;;;6.72;1.95;;;;;;;18.61;59.53;97996.97;6214445;23;20032;-77
2023/10/28 21:24:01;;;;;;;6.13;1.60;;;;;;;18.59;59.91;97998.91;6210562;23;20009;-80
2023/10/28 21:26:26;;;;;;;7.65;2.00;;;;;;;18.57;59.94;97991.06;6213549;23;20494;-78
2023/10/28 21:28:52;;;;;;;5.40;1.95;;;;;;;18.59;59.86;97985.69;6212960;23;20025;-79
2023/10/28 21:31:18;;;;;;;6.00;1.67;;;;;;;18.56;59.86;97986.75;6213219;23;20008;-78
2023/10/28 21:33:44;;;;;;;7.10;1.83;;;;;;;18.55;59.93;97990.31;6213951;23;20005;-78
2023/10/28 21:36:09;;;;;;;5.82;1.65;;;;;;;18.59;59.40;97986.50;6213319;23;20015;-79
2023/10/28 21:38:35;;;;;;;6.03;1.52;;;;;;;18.59;59.60;97983.03;6213760;23;19996;-78
2023/10/28 21:41:00;;;;;;;6.53;1.58;;;;;;;18.58;59.45;97982.19;6213814;23;20007;-79
2023/10/28 21:43:26;;;;;;;8.13;2.00;;;;;;;18.57;59.60;97979.66;6213904;23;20379;-78
2023/10/28 21:45:59;;;;;;;4.93;1.90;;;;;;;18.58;59.52;97968.13;6212720;23;20227;-78
2023/10/28 21:48:26;;;;;;;3.75;1.55;;;;;;;18.62;58.92;97977.53;6213077;23;20350;-77
2023/10/28 21:50:52;;;;;;;2.70;1.10;;;;;;;18.57;59.63;97985.78;6213813;23;20121;-80
2023/10/28 21:53:17;;;;;;;8.18;1.65;;;;;;;18.58;59.72;97986.63;6213616;23;20093;-79
2023/10/28 21:55:43;;;;;;;5.82;1.80;;;;;;;18.57;59.49;97979.66;6213625;23;20005;-80
2023/10/28 21:58:08;;;;;;;4.22;1.30;;;;;;;18.57;59.77;97982.28;6213216;23;20024;-79
2023/10/28 22:03:05;;;;;;;4.65;1.40;;;;;;;18.55;59.69;97971.00;6214564;23;20075;-80
2023/10/28 22:05:31;;;;;;;5.93;1.60;;;;;;;18.52;59.88;97966.78;6214463;23;20001;-80
2023/10/28 22:07:58;;;;;;;4.05;1.55;;;;;;;18.56;59.49;97962.13;6215454;23;20000;-79
2023/10/28 22:10:23;;;;;;;8.82;1.20;;;;;;;18.54;59.73;97974.63;6215502;23;20339;-78
2023/10/28 22:12:49;;;;;;;11.55;1.52;;;;;;;18.52;59.78;97974.72;6215096;23;20004;-78
2023/10/28 22:15:15;;;;;;;7.75;1.60;;;;;;;18.55;59.60;97982.41;6213979;23;20047;-78
2023/10/28 22:17:44;;;;;;;5.97;1.50;;;;;;;18.54;59.67;97974.63;6213914;23;20000;-78
2023/10/28 22:20:11;;;;;;;6.65;1.38;;;;;;;18.56;59.70;97988.53;6187630;23;20005;-78
2023/10/28 22:22:37;;;;;;;3.50;1.02;;;;;;;18.53;59.75;97971.13;6214088;23;20005;-78
2023/10/28 22:25:05;;;;;;;4.93;1.10;;;;;;;18.54;59.33;97964.06;6214039;23;20004;-79
2023/10/28 22:27:32;;;;;;;4.15;1.40;;;;;;;18.51;59.38;97958.03;6213869;23;20007;-78
2023/10/28 22:29:57;;;;;;;11.05;1.45;;;;;;;18.55;59.10;97971.00;6214610;23;20073;-78
2023/10/28 22:32:22;;;;;;;5.38;1.30;;;;;;;18.50;59.31;97974.81;6213825;23;20011;-78
2023/10/28 22:34:48;;;;;;;5.70;1.40;;;;;;;18.46;59.68;97973.38;6214315;23;20004;-78
2023/10/28 22:37:13;;;;;;;5.03;1.35;;;;;;;18.48;59.41;97976.75;6214954;23;20039;-78
2023/10/28 22:39:39;;;;;;;4.68;1.15;;;;;;;18.50;59.40;97974.81;6214376;23;20012;-78
2023/10/28 22:42:05;;;;;;;5.28;1.30;;;;;;;18.44;59.59;97980.56;6214020;23;20001;-79
2023/10/28 22:44:30;;;;;;;5.90;1.30;;;;;;;18.43;59.53;97984.16;6214214;23;20012;-78
2023/10/28 22:46:56;;;;;;;5.35;1.30;;;;;;;18.44;59.50;97963.91;6214204;23;20020;-79
2023/10/28 22:49:21;;;;;;;6.38;1.20;;;;;;;18.46;59.46;97977.81;6214308;23;20382;-78
2023/10/28 22:51:47;;;;;;;4.45;1.15;;;;;;;18.40;59.35;97976.47;6214094;23;20084;-79
2023/10/28 22:54:13;;;;;;;4.47;1.20;;;;;;;18.45;59.17;97971.69;6215354;23;20414;-78
2023/10/28 22:56:38;;;;;;;3.53;1.10;;;;;;;18.42;59.31;97971.94;6213590;23;20099;-78
2023/10/28 22:59:03;;;;;;;2.95;0.95;;;;;;;18.43;59.30;97968.31;6214445;23;20032;-78
2023/10/28 23:01:29;;;;;;;2.30;1.00;;;;;;;18.43;59.59;97964.81;6214238;23;20131;-78
2023/10/28 23:03:55;;;;;;;4.63;1.00;;;;;;;18.43;59.30;97956.91;6214269;23;20005;-78
2023/10/28 23:06:20;;;;;;;4.40;1.20;;;;;;;18.46;59.40;97962.81;6214139;23;20338;-78
2023/10/28 23:08:46;;;;;;;3.65;1.05;;;;;;;18.43;59.28;97957.75;6214288;23;20032;-78
2023/10/28 23:11:11;;;;;;;4.28;0.90;;;;;;;18.40;59.60;97960.63;6213915;23;20004;-78
2023/10/28 23:13:37;;;;;;;2.85;0.90;;;;;;;18.43;59.48;97957.75;6214266;23;20005;-78
2023/10/28 23:16:04;;;;;;;3.15;0.93;;;;;;;18.41;59.33;97954.41;6213958;23;20005;-78
2023/10/28 23:18:30;;;;;;;4.78;1.00;;;;;;;18.40;59.73;97946.59;6213733;23;20000;-78
2023/10/28 23:20:55;;;;;;;3.53;0.93;;;;;;;18.39;59.41;97940.44;6213746;23;20004;-78
2023/10/28 23:23:23;;;;;;;2.53;0.98;;;;;;;18.36;59.41;97936.22;6213951;23;20005;-77
2023/10/28 23:25:48;;;;;;;3.30;1.10;;;;;;;18.37;59.44;97937.09;6213862;23;20028;-78
2023/10/28 23:28:14;;;;;;;4.72;1.05;;;;;;;18.37;59.63;97937.09;6213956;23;20415;-78
2023/10/28 23:30:39;;;;;;;2.58;1.10;;;;;;;18.33;59.74;97943.53;6214072;23;20033;-78
2023/10/28 23:33:04;;;;;;;2.60;0.95;;;;;;;18.32;59.92;97939.22;6213872;23;20372;-79
2023/10/28 23:35:30;;;;;;;3.58;0.93;;;;;;;18.34;59.86;97942.59;6213824;23;20001;-77
2023/10/28 23:37:55;;;;;;;2.38;1.10;;;;;;;18.40;59.60;97936.84;6213972;23;20004;-79
2023/10/28 23:40:21;;;;;;;4.55;1.17;;;;;;;18.43;59.58;97930.50;6213441;23;20086;-78
2023/10/28 23:42:47;;;;;;;5.28;1.35;;;;;;;18.42;59.61;97936.75;6214403;23;20036;-78
2023/10/28 23:45:12;;;;;;;2.25;0.75;;;;;;;18.41;59.86;97940.34;6213816;23;20005;-78
2023/10/28 23:47:37;;;;;;;2.42;0.90;;;;;;;18.38;59.53;97931.69;6213775;23;20490;-79
2023/10/28 23:50:04;;;;;;;2.35;1.00;;;;;;;18.35;59.52;97924.00;6213983;23;20359;-78
2023/10/28 23:52:29;;;;;;;6.50;1.20;;;;;;;18.39;59.45;97932.53;6213500;23;20076;-79
2023/10/28 23:54:55;;;;;;;4.25;0.98;;;;;;;18.38;59.55;97917.63;6213233;23;20036;-79
2023/10/28 23:57:20;;;;;;;3.35;1.10;;;;;;;18.37;59.46;97927.34;6213778;23;20000;-79
2023/10/28 23:59:47;;;;;;;2.20;0.90;;;;;;;18.36;59.68;97925.66;6215106;23;19997;-79
